createdAt,value
2019-04-23T08:45:29.905Z,15.25
2019-04-23T08:50:44.080Z,15.13
2019-04-23T08:53:31.276Z,14.53
2019-04-23T08:58:31.664Z,16.40
2019-04-23T09:01:05.657Z,16.17
2019-04-23T09:08:38.954Z,15.88
2019-04-23T09:11:30.098Z,16.15
2019-04-23T09:16:22.149Z,16.48
2019-04-23T09:19:02.823Z,17.48
2019-04-23T09:21:30.963Z,17.32
2019-04-23T09:23:59.046Z,16.73
2019-04-23T09:26:33.117Z,16.10
2019-04-23T09:29:17.302Z,16.62
2019-04-23T09:32:07.741Z,15.98
2019-04-23T09:34:18.569Z,15.20
2019-04-23T09:39:49.949Z,17.82
2019-04-23T09:42:49.390Z,17.20
2019-04-23T09:45:28.098Z,15.78
2019-04-23T09:48:06.719Z,15.83
2019-04-23T09:50:38.259Z,16.73
2019-04-23T09:55:37.433Z,16.52
2019-04-23T09:58:11.639Z,16.95
2019-04-23T10:01:02.010Z,16.05
2019-04-23T10:03:12.413Z,16.55
2019-04-23T10:05:39.953Z,16.52
2019-04-23T10:08:15.261Z,17.35
2019-04-23T10:10:38.406Z,17.00
2019-04-23T10:13:11.526Z,16.05
2019-04-23T10:15:47.696Z,14.95
2019-04-23T10:18:18.316Z,16.65
2019-04-23T10:20:50.074Z,15.60
2019-04-23T10:23:23.198Z,14.73
2019-04-23T10:25:56.270Z,15.83
2019-04-23T10:28:33.803Z,15.40
2019-04-23T10:31:07.143Z,14.73
2019-04-23T10:33:39.944Z,15.93
2019-04-23T10:36:15.792Z,15.85
2019-04-23T10:38:51.299Z,16.50
2019-04-23T10:41:20.109Z,17.25
2019-04-23T10:43:54.971Z,15.58
2019-04-23T10:46:49.418Z,16.05
2019-04-23T10:54:40.900Z,15.40
2019-04-23T10:59:48.981Z,13.88
2019-04-23T11:04:57.810Z,17.20
2019-04-23T11:10:07.231Z,15.38
2019-04-23T11:13:07.827Z,16.45
2019-04-23T11:15:36.295Z,15.72
2019-04-23T11:22:54.901Z,16.52
2019-04-23T11:28:13.626Z,15.65
2019-04-23T11:33:34.124Z,14.63
2019-04-23T11:38:13.740Z,16.30
2019-04-23T11:41:20.741Z,14.53
2019-04-23T11:43:37.783Z,14.68
2019-04-23T11:46:32.323Z,15.98
2019-04-23T11:49:01.830Z,15.28
2019-04-23T11:54:07.303Z,15.63
2019-04-23T11:56:51.477Z,15.70
2019-04-23T11:59:13.462Z,14.85
2019-04-23T12:01:49.907Z,14.63
2019-04-23T12:09:40.145Z,15.20
2019-04-23T12:12:23.509Z,16.10
2019-04-23T12:22:29.802Z,16.32
2019-04-23T12:27:31.466Z,15.30
2019-04-23T12:30:32.438Z,18.07
2019-04-23T12:35:19.278Z,15.75
2019-04-23T12:37:45.017Z,16.05
2019-04-23T12:40:25.139Z,16.05
2019-04-23T12:43:06.990Z,16.30
2019-04-23T12:48:16.215Z,15.70
2019-04-23T12:50:48.785Z,15.43
2019-04-23T13:00:54.511Z,15.10
2019-04-23T13:03:29.907Z,16.40
2019-04-23T13:05:59.325Z,15.53
2019-04-23T13:11:15.333Z,14.83
2019-04-23T13:13:45.899Z,15.65
2019-04-23T13:16:28.067Z,15.83
2019-04-23T13:18:49.591Z,15.68
2019-04-23T13:21:46.734Z,15.63
2019-04-23T13:24:18.751Z,14.28
2019-04-23T13:26:57.355Z,15.45
2019-04-23T13:29:43.233Z,14.73
2019-04-23T13:31:58.236Z,15.38
2019-04-23T13:34:42.831Z,15.40
2019-04-23T13:37:12.031Z,14.78
2019-04-23T13:39:39.726Z,15.13
2019-04-23T13:42:25.152Z,15.45
2019-04-23T13:44:48.396Z,14.93
2019-04-23T13:47:36.768Z,14.98
2019-04-23T13:49:57.206Z,14.73
2019-04-23T13:53:03.051Z,15.13
2019-04-23T13:58:00.120Z,17.20
2019-04-23T14:00:09.025Z,17.27
2019-04-23T14:02:43.900Z,17.17
2019-04-23T14:05:24.045Z,16.60
2019-04-23T14:07:56.535Z,16.42
2019-04-23T14:10:39.726Z,16.85
2019-04-23T14:13:23.667Z,16.97
2019-04-23T14:15:55.488Z,16.60
2019-04-23T14:18:36.123Z,17.62
2019-04-23T14:20:42.066Z,16.35
2019-04-23T14:26:05.266Z,17.07
2019-04-23T14:28:28.468Z,15.63
2019-04-23T14:33:38.313Z,17.48
2019-04-23T14:36:19.392Z,16.70
2019-04-23T14:38:41.677Z,15.90
2019-04-23T14:41:21.743Z,16.65
2019-04-23T14:43:57.936Z,17.00
2019-04-23T14:48:59.798Z,20.05
2019-04-23T14:51:46.716Z,19.27
2019-04-23T14:54:09.409Z,17.57
2019-04-23T14:56:39.085Z,17.90
2019-04-23T14:59:07.126Z,18.98
2019-04-23T15:01:42.810Z,17.50
2019-04-23T15:04:19.275Z,17.55
2019-04-23T15:12:11.865Z,17.55
2019-04-23T15:14:46.153Z,17.05
2019-04-23T15:17:13.175Z,17.07
2019-04-23T15:20:04.819Z,17.40
2019-04-23T15:22:32.986Z,17.10
2019-04-23T15:25:19.354Z,17.67
2019-04-23T15:30:04.176Z,17.95
2019-04-23T15:32:56.652Z,18.07
2019-04-23T15:35:29.515Z,18.10
2019-04-23T15:38:30.650Z,18.60
2019-04-23T15:40:28.421Z,18.32
2019-04-23T15:43:05.915Z,18.15
2019-04-23T15:45:41.602Z,17.85
2019-04-23T15:48:11.611Z,18.07
2019-04-23T15:50:43.628Z,18.40
2019-04-23T15:53:14.388Z,18.42
2019-04-23T15:55:55.446Z,17.85
2019-04-23T15:58:33.300Z,18.23
2019-04-23T16:01:21.407Z,18.12
2019-04-23T16:03:24.244Z,19.07
2019-04-23T16:05:55.332Z,17.60
2019-04-23T16:11:39.480Z,17.95
2019-04-23T16:14:17.054Z,20.37
2019-04-23T16:19:24.506Z,20.00
2019-04-23T16:22:08.467Z,18.42
2019-04-23T16:24:26.619Z,19.15
2019-04-23T16:27:11.163Z,19.07
2019-04-23T16:29:54.088Z,18.75
2019-04-23T16:34:54.150Z,18.17
2019-04-23T16:37:27.204Z,18.10
2019-04-23T16:40:10.378Z,18.27
2019-04-23T16:42:38.232Z,17.70
2019-04-23T16:45:14.850Z,18.48
2019-04-23T16:47:49.007Z,18.67
2019-04-23T16:50:19.429Z,19.10
2019-04-23T16:53:04.922Z,17.95
2019-04-23T16:55:29.064Z,17.27
2019-04-23T16:58:15.611Z,19.05
2019-04-23T17:00:43.817Z,18.75
2019-04-23T17:03:23.039Z,18.40
2019-04-23T17:05:52.917Z,18.60
2019-04-23T17:11:13.036Z,18.55
2019-04-23T17:13:24.180Z,17.57
2019-04-23T17:16:16.752Z,18.57
2019-04-23T17:18:31.939Z,20.62
2019-04-23T17:21:01.986Z,20.05
2019-04-23T17:24:02.947Z,18.73
2019-04-23T17:28:44.498Z,18.85
2019-04-23T17:31:32.351Z,18.35
2019-04-23T17:33:58.912Z,20.12
2019-04-23T17:39:07.820Z,18.10
2019-04-23T17:41:49.989Z,18.30
2019-04-23T17:46:54.069Z,18.02
2019-04-23T17:49:30.044Z,18.87
2019-04-23T17:52:05.109Z,18.50
2019-04-23T17:54:34.420Z,18.65
2019-04-23T18:00:04.886Z,18.62
2019-04-23T18:05:06.256Z,20.12
2019-04-23T18:07:43.811Z,18.87
2019-04-23T18:12:43.522Z,18.50
2019-04-23T18:15:09.569Z,19.15
2019-04-23T18:17:49.522Z,18.90
2019-04-23T18:20:37.963Z,18.00
2019-04-23T18:23:10.091Z,17.57
2019-04-23T18:25:58.052Z,18.60
2019-04-23T18:28:33.543Z,18.35
2019-04-23T18:31:10.626Z,18.70
2019-04-23T18:36:12.943Z,19.23
2019-04-23T18:38:59.793Z,20.62
2019-04-23T18:41:24.083Z,19.52
2019-04-23T18:44:05.797Z,19.17
2019-04-23T18:46:37.301Z,19.23
2019-04-23T18:49:13.520Z,18.95
2019-04-23T18:51:41.741Z,18.12
2019-04-23T18:54:14.823Z,17.45
2019-04-23T18:57:03.364Z,16.67
2019-04-23T18:59:30.479Z,17.00
2019-04-23T19:02:09.570Z,16.30
2019-04-23T19:07:42.370Z,15.72
2019-04-23T19:13:03.843Z,16.20
2019-04-23T19:15:37.288Z,14.75
2019-04-23T19:20:51.759Z,14.63
2019-04-23T19:23:16.041Z,14.05
2019-04-23T19:25:51.715Z,13.60
2019-04-23T19:28:34.602Z,12.75
2019-04-23T19:31:07.354Z,13.75
2019-04-23T19:33:47.904Z,12.82
2019-04-23T19:36:17.260Z,12.88
2019-04-23T19:38:54.270Z,13.00
2019-04-23T19:41:25.662Z,12.05
2019-04-23T19:43:59.469Z,12.47
2019-04-23T19:46:41.579Z,11.93
2019-04-23T20:04:41.165Z,10.65
2019-04-23T20:09:50.776Z,10.75
2019-04-23T20:12:25.928Z,10.00
2019-04-23T20:14:52.071Z,11.88
2019-04-23T20:17:39.859Z,10.40
2019-04-23T20:19:54.898Z,9.45
2019-04-23T20:22:41.744Z,10.78
2019-04-23T20:25:34.744Z,10.25
2019-04-23T20:31:58.247Z,10.38
2019-04-23T20:35:59.911Z,10.18
2019-04-23T20:38:33.328Z,10.08
2019-04-23T20:41:03.962Z,9.53
2019-04-23T20:43:46.857Z,10.10
2019-04-23T20:46:10.949Z,9.63
2019-04-23T20:48:48.446Z,9.58
2019-04-23T20:51:14.311Z,9.95
2019-04-23T20:53:57.334Z,9.38
2019-04-23T20:56:26.507Z,8.98
2019-04-23T20:58:59.781Z,8.98
2019-04-23T21:04:00.036Z,8.90
2019-04-23T21:06:47.049Z,8.20
2019-04-23T21:09:27.834Z,8.60
2019-04-23T21:11:58.068Z,7.90
2019-04-23T21:16:56.650Z,7.58
2019-04-23T21:19:34.120Z,7.90
2019-04-23T21:22:09.823Z,8.78
2019-04-23T21:24:44.946Z,7.70
2019-04-23T21:27:21.844Z,8.38
2019-04-23T21:29:57.020Z,7.95
2019-04-23T21:32:29.728Z,8.05
2019-04-23T21:35:05.273Z,8.10
2019-04-23T21:37:49.456Z,8.10
2019-04-23T21:43:10.488Z,7.55
2019-04-23T21:45:53.053Z,8.13
2019-04-23T21:48:28.046Z,7.58
2019-04-23T21:50:58.354Z,8.10
2019-04-23T21:53:24.288Z,8.85
2019-04-23T21:58:36.796Z,8.40
2019-04-23T22:01:19.786Z,8.45
2019-04-23T22:06:33.127Z,8.68
2019-04-23T22:09:10.397Z,8.43
2019-04-23T22:11:48.292Z,8.80
2019-04-23T22:14:13.204Z,9.25
2019-04-23T22:16:50.073Z,8.75
2019-04-23T22:19:19.734Z,9.48
2019-04-23T22:26:44.994Z,9.48
2019-04-23T22:29:26.221Z,9.10
2019-04-23T22:31:53.735Z,8.68
2019-04-23T22:34:42.939Z,9.18
2019-04-23T22:37:19.391Z,9.43
2019-04-23T22:39:46.965Z,8.43
2019-04-23T22:42:26.846Z,7.65
2019-04-23T22:47:28.445Z,8.43
2019-04-23T22:50:10.880Z,8.10
2019-04-23T22:55:07.715Z,7.53
2019-04-23T22:57:56.445Z,7.40
2019-04-23T23:00:14.379Z,8.20
2019-04-23T23:05:56.388Z,9.25
2019-04-23T23:08:17.974Z,9.38
2019-04-23T23:10:53.341Z,9.15
2019-04-23T23:16:02.053Z,8.88
2019-04-23T23:21:07.920Z,9.15
2019-04-23T23:23:40.835Z,9.40
2019-04-23T23:28:44.697Z,10.60
2019-04-23T23:31:22.510Z,9.50
2019-04-23T23:33:55.805Z,9.58
2019-04-23T23:41:35.606Z,9.08
2019-04-23T23:46:46.220Z,8.90
2019-04-23T23:57:13.889Z,8.73
2019-04-23T23:59:41.924Z,8.40
